Time;durP1;ratioP1;P1;durP2;ratioP2;P2;SDS_P1;SDS_P2;PMS_P1;PMS_P2;Temp;Humidity;BMP_temperature;BMP_pressure;BME280_temperature;BME280_humidity;BME280_pressure;Samples;Min_cycle;Max_cycle;Signal;HPM_P1;HPM_P2
2021/11/29 00:01:48;;;;;;;11.20;4.53;;;;;;;;;;10446900;28;20365;-72
2021/11/29 00:06:53;;;;;;;9.07;3.37;;;;;;;;;;10445743;28;20091;-72
2021/11/29 00:11:55;;;;;;;10.57;4.70;;;;;;;;;;10451886;28;20060;-71
2021/11/29 00:16:58;;;;;;;3.13;1.47;;;;;;;;;;10443168;28;20142;-73
2021/11/29 00:22:02;;;;;;;15.17;5.33;;;;;;;;;;10447540;28;20057;-73
2021/11/29 00:27:05;;;;;;;;;;;;;;;;;;10442679;28;20529;-73
2021/11/29 00:32:08;;;;;;;12.37;5.07;;;;;;;;;;10444935;28;19974;-72
2021/11/29 00:37:12;;;;;;;7.63;3.43;;;;;;;;;;10444454;28;20128;-74
2021/11/29 00:42:15;;;;;;;;;;;;;;;;;;10449053;28;20323;-73
2021/11/29 00:47:17;;;;;;;10.47;4.43;;;;;;;;;;10444170;28;20015;-73
2021/11/29 00:52:21;;;;;;;10.77;3.57;;;;;;;;;;10444833;28;20045;-71
2021/11/29 00:57:24;;;;;;;;;;;;;;;;;;10441339;28;20052;-73
2021/11/29 01:02:27;;;;;;;6.80;2.93;;;;;;;;;;10445655;28;19986;-72
2021/11/29 01:07:31;;;;;;;12.07;5.20;;;;;;;;;;10433443;28;20040;-74
2021/11/29 01:12:33;;;;;;;;;;;;;;;;;;10445075;28;20056;-73
2021/11/29 01:17:36;;;;;;;12.40;4.67;;;;;;;;;;10437685;28;20312;-76
2021/11/29 01:22:41;;;;;;;11.87;5.53;;;;;;;;;;10444790;28;20040;-71
2021/11/29 01:27:44;;;;;;;12.93;5.80;;;;;;;;;;10440335;28;20365;-71
2021/11/29 01:32:47;;;;;;;16.43;6.43;;;;;;;;;;10439114;28;20059;-74
2021/11/29 01:37:51;;;;;;;14.70;6.50;;;;;;;;;;10442803;28;20508;-71
2021/11/29 01:42:53;;;;;;;;;;;;;;;;;;10443924;28;20036;-73
2021/11/29 01:47:56;;;;;;;6.60;3.57;;;;;;;;;;10431869;28;20310;-71
2021/11/29 01:53:00;;;;;;;8.70;4.10;;;;;;;;;;10440403;28;20060;-72
2021/11/29 01:58:03;;;;;;;;;;;;;;;;;;10434808;28;20380;-73
2021/11/29 02:03:06;;;;;;;14.47;5.17;;;;;;;;;;10435651;28;19928;-73
2021/11/29 02:08:10;;;;;;;16.47;5.93;;;;;;;;;;10442095;28;20059;-74
2021/11/29 02:13:13;;;;;;;21.17;6.37;;;;;;;;;;10434673;28;20125;-73
2021/11/29 02:18:40;;;;;;;16.07;5.53;;;;;;;;;;10441861;28;20071;-73
2021/11/29 02:23:46;;;;;;;14.40;6.00;;;;;;;;;;10448934;28;20434;-74
2021/11/29 02:29:00;;;;;;;9.77;3.27;;;;;;;;;;10441024;28;20048;-74
2021/11/29 02:34:06;;;;;;;13.70;5.15;;;;;;;;;;10466785;28;20037;-73
2021/11/29 02:39:11;;;;;;;12.93;5.70;;;;;;;;;;10433696;28;20048;-74
2021/11/29 02:44:14;;;;;;;9.90;4.63;;;;;;;;;;10439708;28;20033;-73
2021/11/29 02:49:17;;;;;;;14.83;4.87;;;;;;;;;;10440268;28;20033;-74
2021/11/29 02:54:22;;;;;;;5.50;3.47;;;;;;;;;;10443662;28;20090;-73
2021/11/29 02:59:27;;;;;;;3.33;2.00;;;;;;;;;;10442275;28;20108;-73
2021/11/29 03:04:32;;;;;;;9.10;3.20;;;;;;;;;;10442137;28;20029;-73
2021/11/29 03:09:36;;;;;;;11.33;3.83;;;;;;;;;;10442847;28;20440;-72
2021/11/29 03:14:38;;;;;;;;;;;;;;;;;;10441306;28;20037;-69
2021/11/29 03:19:42;;;;;;;3.97;2.00;;;;;;;;;;10440112;28;19925;-72
2021/11/29 03:24:47;;;;;;;10.30;5.00;;;;;;;;;;10441799;28;20566;-71
2021/11/29 03:29:50;;;;;;;5.85;2.72;;;;;;;;;;10425873;28;20071;-71
2021/11/29 03:34:52;;;;;;;6.80;2.70;;;;;;;;;;10441721;28;20033;-73
2021/11/29 03:39:57;;;;;;;9.47;4.33;;;;;;;;;;10444319;28;20049;-73
2021/11/29 03:45:00;;;;;;;;;;;;;;;;;;10453905;28;20064;-72
2021/11/29 03:50:03;;;;;;;10.60;4.73;;;;;;;;;;10449157;28;19920;-71
2021/11/29 03:55:08;;;;;;;7.80;3.40;;;;;;;;;;10446553;28;20059;-74
2021/11/29 04:00:11;;;;;;;9.17;5.13;;;;;;;;;;10444961;28;20048;-72
2021/11/29 04:05:14;;;;;;;8.38;3.42;;;;;;;;;;10438983;28;20033;-72
2021/11/29 04:10:19;;;;;;;2.90;0.90;;;;;;;;;;10445550;28;20069;-73
2021/11/29 04:15:22;;;;;;;8.40;4.00;;;;;;;;;;10478359;28;20551;-73
2021/11/29 04:20:24;;;;;;;5.90;2.50;;;;;;;;;;10451599;28;20044;-73
2021/11/29 04:25:35;;;;;;;20.83;8.17;;;;;;;;;;10444481;28;20075;-74
2021/11/29 04:30:38;;;;;;;5.50;2.07;;;;;;;;;;10443855;28;20075;-72
2021/11/29 04:35:41;;;;;;;10.83;5.10;;;;;;;;;;10454236;28;20532;-72
2021/11/29 04:40:45;;;;;;;14.87;5.00;;;;;;;;;;10446827;28;20877;-73
2021/11/29 04:45:48;;;;;;;11.77;5.17;;;;;;;;;;10445163;28;20075;-74
2021/11/29 04:50:51;;;;;;;23.13;7.43;;;;;;;;;;10446473;28;20045;-72
2021/11/29 04:55:55;;;;;;;14.70;5.77;;;;;;;;;;10447804;28;20044;-74
2021/11/29 05:00:58;;;;;;;17.03;6.87;;;;;;;;;;10446646;28;20426;-73
2021/11/29 05:06:01;;;;;;;15.93;6.10;;;;;;;;;;10442765;28;20091;-73
2021/11/29 05:11:07;;;;;;;6.60;3.13;;;;;;;;;;10440566;28;20048;-73
2021/11/29 05:16:10;;;;;;;8.75;4.90;;;;;;;;;;10439769;28;20589;-74
2021/11/29 05:21:13;;;;;;;9.60;4.90;;;;;;;;;;10446024;28;20511;-73
2021/11/29 05:26:20;;;;;;;4.80;2.70;;;;;;;;;;10442224;28;20591;-71
2021/11/29 05:31:23;;;;;;;3.90;2.40;;;;;;;;;;10438007;28;20106;-73
2021/11/29 05:36:25;;;;;;;5.60;2.00;;;;;;;;;;10443150;28;20136;-73
2021/11/29 05:41:30;;;;;;;13.20;5.43;;;;;;;;;;10438464;28;20065;-72
2021/11/29 05:46:32;;;;;;;8.53;4.33;;;;;;;;;;10439076;28;20080;-72
2021/11/29 05:51:35;;;;;;;9.77;3.30;;;;;;;;;;10443986;28;20072;-71
2021/11/29 05:56:40;;;;;;;5.53;2.97;;;;;;;;;;10439610;28;20045;-73
2021/11/29 06:01:42;;;;;;;;;;;;;;;;;;10444316;28;20147;-71
2021/11/29 06:06:45;;;;;;;11.27;5.57;;;;;;;;;;10447965;28;19967;-72
2021/11/29 06:11:49;;;;;;;5.73;2.80;;;;;;;;;;10440357;28;20037;-71
2021/11/29 06:16:52;;;;;;;;;;;;;;;;;;10443523;28;20056;-73
2021/11/29 06:21:55;;;;;;;5.40;2.47;;;;;;;;;;10445821;28;19963;-70
2021/11/29 06:26:59;;;;;;;7.70;2.53;;;;;;;;;;10442461;28;20033;-73
2021/11/29 06:32:01;;;;;;;;;;;;;;;;;;10440307;28;20099;-71
2021/11/29 06:37:04;;;;;;;4.67;2.23;;;;;;;;;;10434352;28;19920;-70
2021/11/29 06:42:09;;;;;;;3.37;1.77;;;;;;;;;;10437534;28;20268;-70
2021/11/29 06:47:12;;;;;;;8.87;3.57;;;;;;;;;;10441226;28;20112;-73
2021/11/29 06:52:15;;;;;;;11.53;3.93;;;;;;;;;;10442752;28;20057;-71
2021/11/29 06:57:19;;;;;;;5.20;2.70;;;;;;;;;;10441400;28;20064;-71
2021/11/29 07:02:26;;;;;;;5.33;3.07;;;;;;;;;;10441693;28;20060;-70
2021/11/29 07:07:30;;;;;;;6.23;3.30;;;;;;;;;;10446884;28;20037;-71
2021/11/29 07:12:34;;;;;;;2.40;0.90;;;;;;;;;;10452827;28;20057;-71
2021/11/29 07:17:37;;;;;;;4.90;2.30;;;;;;;;;;10456331;28;20075;-73
2021/11/29 07:22:40;;;;;;;14.10;5.00;;;;;;;;;;10449224;28;20114;-72
2021/11/29 07:27:44;;;;;;;11.43;7.50;;;;;;;;;;10447295;28;20052;-71
2021/11/29 07:32:47;;;;;;;;;;;;;;;;;;10436070;28;20654;-70
2021/11/29 07:37:50;;;;;;;3.80;1.90;;;;;;;;;;10437007;28;20419;-71
2021/11/29 07:42:54;;;;;;;10.07;5.07;;;;;;;;;;10442957;28;20527;-71
2021/11/29 07:47:57;;;;;;;;;;;;;;;;;;10449317;28;20045;-72
2021/11/29 07:53:00;;;;;;;9.67;4.93;;;;;;;;;;10444410;28;20015;-71
2021/11/29 07:58:04;;;;;;;3.30;2.50;;;;;;;;;;10441614;28;20041;-72
2021/11/29 08:03:08;;;;;;;10.90;4.80;;;;;;;;;;10446745;28;20085;-70
2021/11/29 08:08:11;;;;;;;7.20;3.75;;;;;;;;;;10447622;28;20094;-71
2021/11/29 08:13:15;;;;;;;14.70;5.47;;;;;;;;;;10443086;28;20045;-71
2021/11/29 08:18:18;;;;;;;;;;;;;;;;;;10441980;28;20037;-69
2021/11/29 08:23:21;;;;;;;11.90;5.10;;;;;;;;;;10452670;28;19920;-71
2021/11/29 08:28:25;;;;;;;12.33;5.00;;;;;;;;;;10443439;28;20033;-72
2021/11/29 08:33:28;;;;;;;;;;;;;;;;;;10438168;28;20041;-71
2021/11/29 08:38:33;;;;;;;5.33;3.00;;;;;;;;;;10444902;28;19944;-71
2021/11/29 08:43:38;;;;;;;4.23;2.40;;;;;;;;;;10444679;28;20405;-71
2021/11/29 08:48:41;;;;;;;19.07;7.43;;;;;;;;;;10443864;28;20040;-71
2021/11/29 08:53:44;;;;;;;3.00;1.77;;;;;;;;;;10441949;28;20044;-70
2021/11/29 08:58:49;;;;;;;11.67;4.20;;;;;;;;;;10442236;28;20033;-70
2021/11/29 09:03:51;;;;;;;;;;;;;;;;;;10448435;28;20053;-72
2021/11/29 09:08:54;;;;;;;7.43;2.97;;;;;;;;;;10442793;28;20288;-71
2021/11/29 09:14:01;;;;;;;6.68;3.13;;;;;;;;;;10435416;28;20053;-72
2021/11/29 09:19:04;;;;;;;;;;;;;;;;;;10439380;28;20052;-70
2021/11/29 09:24:07;;;;;;;11.88;5.03;;;;;;;;;;10440252;28;19964;-72
2021/11/29 09:29:11;;;;;;;5.22;2.42;;;;;;;;;;10438431;28;20051;-71
2021/11/29 09:34:14;;;;;;;13.02;5.35;;;;;;;;;;10445003;28;20041;-70
2021/11/29 09:39:17;;;;;;;9.90;3.50;;;;;;;;;;10441190;28;20456;-71
2021/11/29 09:44:21;;;;;;;7.65;4.07;;;;;;;;;;10440238;28;20120;-71
2021/11/29 09:49:28;;;;;;;;;;;;;;;;;;10435258;28;20120;-72
2021/11/29 09:54:30;;;;;;;9.02;3.83;;;;;;;;;;10438891;28;20340;-69
2021/11/29 09:59:35;;;;;;;12.02;4.88;;;;;;;;;;10440947;28;20125;-72
2021/11/29 10:04:37;;;;;;;;;;;;;;;;;;10440184;28;20072;-72
2021/11/29 10:09:40;;;;;;;7.68;3.00;;;;;;;;;;10439832;28;19994;-72
2021/11/29 10:14:44;;;;;;;12.35;5.43;;;;;;;;;;10443484;28;20397;-71
2021/11/29 10:19:47;;;;;;;;;;;;;;;;;;10440338;28;20507;-70
2021/11/29 10:24:51;;;;;;;5.65;2.80;;;;;;;;;;10441619;28;20282;-71
2021/11/29 10:29:57;;;;;;;13.98;6.47;;;;;;;;;;10438123;28;20041;-70
2021/11/29 10:35:00;;;;;;;10.65;4.68;;;;;;;;;;10441066;28;20057;-71
2021/11/29 10:40:05;;;;;;;10.27;4.07;;;;;;;;;;10436099;28;20040;-71
2021/11/29 10:45:19;;;;;;;8.15;4.65;;;;;;;;;;10443154;28;20540;-70
2021/11/29 10:50:26;;;;;;;5.38;2.80;;;;;;;;;;10445436;28;20045;-70
2021/11/29 10:55:30;;;;;;;4.35;1.90;;;;;;;;;;10439881;28;20053;-70
2021/11/29 11:00:39;;;;;;;6.27;2.93;;;;;;;;;;10432117;28;20419;-71
2021/11/29 11:05:57;;;;;;;4.25;2.50;;;;;;;;;;10425143;28;20111;-70
2021/11/29 11:11:00;;;;;;;11.15;3.90;;;;;;;;;;10426091;28;20164;-69
2021/11/29 11:16:05;;;;;;;12.18;5.07;;;;;;;;;;10429978;28;20052;-70
2021/11/29 11:21:14;;;;;;;10.73;3.15;;;;;;;;;;10433322;28;20552;-70
2021/11/29 11:26:33;;;;;;;7.93;3.40;;;;;;;;;;10439496;28;20469;-71
2021/11/29 11:31:37;;;;;;;7.85;3.38;;;;;;;;;;10440263;28;20056;-71
2021/11/29 11:36:40;;;;;;;10.10;4.13;;;;;;;;;;10439394;28;20488;-70
2021/11/29 11:41:44;;;;;;;15.53;7.53;;;;;;;;;;10438014;28;20124;-69
2021/11/29 11:46:48;;;;;;;10.95;3.83;;;;;;;;;;10433814;28;20107;-70
2021/11/29 11:51:50;;;;;;;;;;;;;;;;;;10432670;28;20544;-71
2021/11/29 11:56:53;;;;;;;16.53;7.23;;;;;;;;;;10446021;28;20332;-71
2021/11/29 12:01:58;;;;;;;8.37;2.93;;;;;;;;;;10449955;28;20095;-71
2021/11/29 12:07:01;;;;;;;4.83;2.00;;;;;;;;;;10442591;28;20096;-72
2021/11/29 12:12:05;;;;;;;8.73;3.57;;;;;;;;;;10444627;28;20421;-71
2021/11/29 12:17:20;;;;;;;5.73;2.30;;;;;;;;;;10437303;28;20126;-71
2021/11/29 12:22:33;;;;;;;2.63;1.63;;;;;;;;;;10448407;28;20053;-71
2021/11/29 12:27:41;;;;;;;3.97;1.77;;;;;;;;;;10443408;28;20853;-72
2021/11/29 12:32:52;;;;;;;7.27;2.97;;;;;;;;;;10445992;28;20536;-70
2021/11/29 12:38:01;;;;;;;8.13;3.97;;;;;;;;;;10442809;28;20495;-71
2021/11/29 12:43:04;;;;;;;5.97;3.27;;;;;;;;;;10444335;28;20041;-70
2021/11/29 12:48:13;;;;;;;10.97;4.10;;;;;;;;;;10444772;28;20455;-70
2021/11/29 12:53:17;;;;;;;4.57;1.53;;;;;;;;;;10444858;28;20044;-70
2021/11/29 12:58:23;;;;;;;9.30;3.50;;;;;;;;;;10441390;28;20529;-72
2021/11/29 13:03:29;;;;;;;4.43;2.33;;;;;;;;;;10440659;28;20099;-71
2021/11/29 13:08:34;;;;;;;6.60;2.40;;;;;;;;;;10447172;28;20392;-70
2021/11/29 13:13:44;;;;;;;6.03;2.40;;;;;;;;;;10446707;28;20044;-71
2021/11/29 13:18:56;;;;;;;13.93;4.13;;;;;;;;;;10438619;28;20064;-72
2021/11/29 13:24:00;;;;;;;7.60;3.13;;;;;;;;;;10439632;28;20072;-72
2021/11/29 13:29:03;;;;;;;;;;;;;;;;;;10444061;28;20044;-71
2021/11/29 13:34:08;;;;;;;2.77;1.50;;;;;;;;;;10445379;28;19921;-71
2021/11/29 13:39:14;;;;;;;10.97;4.23;;;;;;;;;;10443059;28;20094;-72
2021/11/29 13:44:20;;;;;;;7.77;3.00;;;;;;;;;;10439929;28;20083;-71
2021/11/29 13:49:30;;;;;;;5.93;3.63;;;;;;;;;;10441696;28;20037;-70
2021/11/29 13:54:39;;;;;;;5.13;2.47;;;;;;;;;;10438889;28;20547;-71
2021/11/29 13:59:46;;;;;;;9.95;4.05;;;;;;;;;;10434123;28;20079;-71
2021/11/29 14:04:55;;;;;;;8.33;3.37;;;;;;;;;;10441902;28;20443;-72
2021/11/29 14:09:58;;;;;;;8.07;3.40;;;;;;;;;;10440140;28;20037;-71
2021/11/29 14:15:01;;;;;;;5.43;2.17;;;;;;;;;;10437841;28;20041;-71
2021/11/29 14:20:13;;;;;;;7.97;3.50;;;;;;;;;;10449827;28;20096;-72
2021/11/29 14:25:16;;;;;;;5.10;2.37;;;;;;;;;;10444139;28;20492;-69
2021/11/29 14:30:19;;;;;;;8.90;4.37;;;;;;;;;;10443292;28;20120;-69
2021/11/29 14:35:30;;;;;;;4.07;1.90;;;;;;;;;;10438763;28;20120;-72
2021/11/29 14:40:33;;;;;;;8.83;3.30;;;;;;;;;;10438413;28;20131;-71
2021/11/29 14:45:36;;;;;;;8.67;4.37;;;;;;;;;;10440392;28;20178;-72
2021/11/29 14:50:41;;;;;;;8.13;3.70;;;;;;;;;;10441842;28;20098;-70
2021/11/29 14:55:45;;;;;;;6.53;2.73;;;;;;;;;;10436787;28;20100;-70
2021/11/29 15:00:49;;;;;;;10.85;4.30;;;;;;;;;;10433783;28;20488;-71
2021/11/29 15:05:54;;;;;;;5.25;2.60;;;;;;;;;;10436048;28;20044;-69
2021/11/29 15:11:01;;;;;;;8.13;3.37;;;;;;;;;;10438515;28;20072;-72
2021/11/29 15:16:05;;;;;;;4.37;2.47;;;;;;;;;;10434280;28;20267;-71
2021/11/29 15:21:09;;;;;;;5.20;2.73;;;;;;;;;;10439510;28;20045;-71
2021/11/29 15:26:11;;;;;;;;;;;;;;;;;;10439765;28;20045;-72
2021/11/29 15:31:27;;;;;;;3.83;2.07;;;;;;;;;;10443378;28;19944;-69
2021/11/29 15:36:32;;;;;;;4.97;2.37;;;;;;;;;;10446553;28;20067;-71
2021/11/29 15:41:34;;;;;;;2.37;0.60;;;;;;;;;;10439856;28;20147;-70
2021/11/29 15:46:43;;;;;;;5.00;1.50;;;;;;;;;;10442705;28;20075;-72
2021/11/29 15:51:48;;;;;;;3.03;1.53;;;;;;;;;;10442948;28;20291;-73
2021/11/29 15:56:50;;;;;;;1.02;0.75;;;;;;;;;;10447594;28;20063;-69
2021/11/29 16:01:53;;;;;;;3.73;1.00;;;;;;;;;;10445887;28;20053;-71
2021/11/29 16:06:58;;;;;;;2.55;1.08;;;;;;;;;;10439182;28;20615;-71
2021/11/29 16:12:01;;;;;;;1.83;1.20;;;;;;;;;;10447993;28;20053;-72
2021/11/29 16:17:06;;;;;;;0.50;0.50;;;;;;;;;;10439964;28;20041;-67
2021/11/29 16:22:10;;;;;;;0.33;0.33;;;;;;;;;;10446930;28;20241;-72
2021/11/29 16:27:13;;;;;;;2.53;1.50;;;;;;;;;;10439932;28;20500;-73
2021/11/29 16:32:16;;;;;;;3.33;1.40;;;;;;;;;;10446567;28;20047;-72
2021/11/29 16:37:20;;;;;;;4.33;2.00;;;;;;;;;;10446119;28;20094;-69
2021/11/29 16:42:23;;;;;;;;;;;;;;;;;;10446957;28;20052;-71
2021/11/29 16:47:28;;;;;;;7.70;2.47;;;;;;;;;;10448631;28;19952;-73
2021/11/29 16:52:33;;;;;;;4.30;1.70;;;;;;;;;;10444070;28;20060;-72
2021/11/29 16:57:38;;;;;;;;;;;;;;;;;;10448319;28;20710;-72
2021/11/29 17:02:41;;;;;;;5.77;2.40;;;;;;;;;;10441042;28;20003;-71
2021/11/29 17:07:46;;;;;;;2.75;1.27;;;;;;;;;;10446628;28;20509;-73
2021/11/29 17:12:48;;;;;;;3.28;1.55;;;;;;;;;;10452101;28;20033;-73
2021/11/29 17:17:51;;;;;;;5.90;2.07;;;;;;;;;;10445089;28;20052;-74
2021/11/29 17:22:56;;;;;;;6.90;2.40;;;;;;;;;;10474007;28;20044;-70
2021/11/29 17:27:58;;;;;;;;;;;;;;;;;;10437150;28;20041;-71
2021/11/29 17:33:05;;;;;;;10.17;2.13;;;;;;;;;;10442272;28;20458;-70
2021/11/29 17:38:29;;;;;;;4.50;1.13;;;;;;;;;;10442423;28;20412;-70
2021/11/29 17:43:32;;;;;;;;;;;;;;;;;;10441559;28;20068;-71
2021/11/29 17:48:36;;;;;;;4.23;2.23;;;;;;;;;;10443486;28;19924;-76
2021/11/29 17:53:40;;;;;;;3.88;1.40;;;;;;;;;;10449896;28;20041;-71
2021/11/29 17:58:43;;;;;;;;;;;;;;;;;;10449839;28;20041;-71
2021/11/29 18:03:46;;;;;;;3.20;1.33;;;;;;;;;;10438349;28;20521;-71
2021/11/29 18:14:19;;;;;;;4.53;1.67;;;;;;;;;;10514042;28;20971;-72
2021/11/29 18:19:25;;;;;;;5.77;2.40;;;;;;;;;;10508478;28;20076;-72
2021/11/29 18:24:31;;;;;;;4.53;1.93;;;;;;;;;;10473894;28;20140;-71
2021/11/29 18:29:39;;;;;;;2.00;0.77;;;;;;;;;;10477197;28;20045;-69
2021/11/29 18:34:42;;;;;;;;;;;;;;;;;;10479656;28;20045;-70
2021/11/29 18:39:46;;;;;;;3.33;1.27;;;;;;;;;;10476787;28;19924;-70
2021/11/29 18:44:52;;;;;;;7.43;2.42;;;;;;;;;;10469961;28;20076;-71
2021/11/29 18:49:55;;;;;;;6.40;2.57;;;;;;;;;;10472235;28;20037;-70
2021/11/29 18:54:57;;;;;;;9.80;3.00;;;;;;;;;;10468982;28;20433;-70
2021/11/29 19:00:01;;;;;;;10.10;3.90;;;;;;;;;;10472129;28;20037;-71
2021/11/29 19:05:05;;;;;;;3.40;1.80;;;;;;;;;;10475808;28;20103;-69
2021/11/29 19:10:08;;;;;;;4.85;2.13;;;;;;;;;;10476873;28;20044;-72
2021/11/29 19:15:13;;;;;;;7.03;2.67;;;;;;;;;;10473972;28;20045;-70
2021/11/29 19:20:16;;;;;;;3.87;2.00;;;;;;;;;;10472402;28;20041;-71
2021/11/29 19:25:19;;;;;;;6.30;1.90;;;;;;;;;;10450384;28;20075;-71
2021/11/29 19:30:23;;;;;;;7.70;2.07;;;;;;;;;;10447763;28;20395;-70
2021/11/29 19:35:26;;;;;;;4.23;2.50;;;;;;;;;;10454974;28;20098;-71
2021/11/29 19:40:38;;;;;;;5.37;1.97;;;;;;;;;;10445261;28;20044;-70
2021/11/29 19:45:42;;;;;;;7.20;2.83;;;;;;;;;;10442886;28;20048;-70
2021/11/29 19:50:45;;;;;;;8.90;2.80;;;;;;;;;;10473583;28;21417;-70
2021/11/29 19:55:48;;;;;;;2.47;1.27;;;;;;;;;;10442476;28;20114;-70
2021/11/29 20:00:52;;;;;;;4.83;2.70;;;;;;;;;;10446814;28;20041;-70
2021/11/29 20:05:55;;;;;;;6.20;2.40;;;;;;;;;;10438448;28;20037;-70
2021/11/29 20:10:58;;;;;;;3.90;1.20;;;;;;;;;;10442346;28;20115;-73
2021/11/29 20:16:04;;;;;;;6.13;3.10;;;;;;;;;;10446540;28;20056;-70
2021/11/29 20:21:07;;;;;;;3.33;2.10;;;;;;;;;;10447477;28;20076;-70
2021/11/29 20:26:10;;;;;;;3.27;1.70;;;;;;;;;;10445075;28;20063;-71
2021/11/29 20:31:15;;;;;;;5.43;2.80;;;;;;;;;;10446941;28;20044;-70
2021/11/29 20:36:18;;;;;;;;;;;;;;;;;;10442374;28;20061;-70
2021/11/29 20:41:21;;;;;;;9.03;3.23;;;;;;;;;;10475932;28;19925;-71
2021/11/29 20:46:26;;;;;;;4.23;1.70;;;;;;;;;;10444358;28;20045;-72
2021/11/29 20:51:29;;;;;;;11.03;2.37;;;;;;;;;;10441586;28;20045;-71
2021/11/29 20:56:34;;;;;;;10.65;3.70;;;;;;;;;;10444305;28;20053;-73
2021/11/29 21:01:39;;;;;;;5.33;2.23;;;;;;;;;;10446730;28;20037;-71
2021/11/29 21:06:43;;;;;;;7.40;2.93;;;;;;;;;;10443175;28;20051;-69
2021/11/29 21:11:45;;;;;;;7.45;1.75;;;;;;;;;;10444856;28;20543;-71
2021/11/29 21:16:49;;;;;;;7.30;2.90;;;;;;;;;;10440114;28;20072;-72
2021/11/29 21:21:52;;;;;;;;;;;;;;;;;;10443554;28;20049;-70
2021/11/29 21:26:57;;;;;;;5.70;2.53;;;;;;;;;;10442381;28;20368;-71
2021/11/29 21:32:01;;;;;;;8.00;2.87;;;;;;;;;;10445115;28;20041;-70
2021/11/29 21:37:03;;;;;;;;;;;;;;;;;;10438965;28;20037;-71
2021/11/29 21:42:06;;;;;;;5.93;1.97;;;;;;;;;;10444666;28;19936;-71
2021/11/29 21:47:10;;;;;;;3.97;1.60;;;;;;;;;;10441514;28;20063;-71
2021/11/29 21:52:13;;;;;;;;;;;;;;;;;;10437014;28;20037;-71
2021/11/29 21:57:16;;;;;;;6.90;2.43;;;;;;;;;;10442511;28;20309;-68
2021/11/29 22:02:20;;;;;;;8.20;1.83;;;;;;;;;;10437856;28;20037;-71
2021/11/29 22:07:22;;;;;;;;;;;;;;;;;;10440827;28;20040;-69
2021/11/29 22:12:25;;;;;;;4.93;2.33;;;;;;;;;;10442232;28;19924;-70
2021/11/29 22:17:29;;;;;;;7.90;3.10;;;;;;;;;;10442300;28;20076;-70
2021/11/29 22:22:33;;;;;;;4.13;1.77;;;;;;;;;;10440065;28;20505;-69
2021/11/29 22:27:36;;;;;;;6.00;2.53;;;;;;;;;;10442274;28;20041;-71
2021/11/29 22:32:40;;;;;;;6.30;2.43;;;;;;;;;;10442396;28;20124;-71
2021/11/29 22:37:43;;;;;;;6.72;3.45;;;;;;;;;;10443527;28;20291;-72
2021/11/29 22:42:46;;;;;;;8.40;3.43;;;;;;;;;;10442719;28;20041;-71
2021/11/29 22:47:50;;;;;;;6.43;3.53;;;;;;;;;;10442999;28;20048;-70
2021/11/29 22:52:53;;;;;;;;;;;;;;;;;;10444403;28;20064;-70
2021/11/29 22:57:55;;;;;;;8.47;3.43;;;;;;;;;;10445258;28;19920;-69
2021/11/29 23:02:59;;;;;;;11.57;4.90;;;;;;;;;;10447897;28;20065;-71
2021/11/29 23:08:02;;;;;;;;;;;;;;;;;;10444677;28;20120;-69
2021/11/29 23:13:05;;;;;;;7.80;3.80;;;;;;;;;;10447017;28;19925;-68
2021/11/29 23:18:09;;;;;;;6.97;3.77;;;;;;;;;;10441245;28;20540;-70
2021/11/29 23:23:11;;;;;;;;;;;;;;;;;;10444885;28;20064;-69
2021/11/29 23:28:16;;;;;;;8.05;3.85;;;;;;;;;;10449008;28;19927;-71
2021/11/29 23:33:20;;;;;;;8.30;3.97;;;;;;;;;;10451486;28;20091;-71
2021/11/29 23:38:23;;;;;;;;;;;;;;;;;;10443777;28;20068;-71
2021/11/29 23:43:26;;;;;;;10.20;4.87;;;;;;;;;;10453140;28;19932;-71
2021/11/29 23:48:34;;;;;;;9.33;4.30;;;;;;;;;;10448451;28;20469;-70
2021/11/29 23:53:41;;;;;;;7.57;3.23;;;;;;;;;;10444632;28;20475;-71
2021/11/29 23:58:44;;;;;;;6.00;3.47;;;;;;;;;;10445672;28;20071;-68
